Time;durP1;ratioP1;P1;durP2;ratioP2;P2;SDS_P1;SDS_P2;PMS_P1;PMS_P2;Temp;Humidity;BMP_temperature;BMP_pressure;BME280_temperature;BME280_humidity;BME280_pressure;Samples;Min_cycle;Max_cycle;Signal;HPM_P1;HPM_P2
2022/09/10 00:01:58;;;;;;;13.77;6.90;;;;;;;;;;5076223;28;20052;-76
2022/09/10 00:04:25;;;;;;;17.65;6.53;;;;;;;;;;5071399;28;20073;-74
2022/09/10 00:06:52;;;;;;;19.25;6.60;;;;;;;;;;5073679;28;20967;-75
2022/09/10 00:09:19;;;;;;;12.93;6.13;;;;;;;;;;5081205;28;20041;-76
2022/09/10 00:11:46;;;;;;;12.07;5.97;;;;;;;;;;5068593;28;20919;-74
2022/09/10 00:14:16;;;;;;;12.15;5.88;;;;;;;;;;5073653;28;20048;-74
2022/09/10 00:16:43;;;;;;;13.88;6.32;;;;;;;;;;5075094;28;20049;-74
2022/09/10 00:19:10;;;;;;;15.90;6.18;;;;;;;;;;5072394;28;20065;-75
2022/09/10 00:21:38;;;;;;;19.77;6.70;;;;;;;;;;5077423;28;20053;-73
2022/09/10 00:24:06;;;;;;;17.20;6.00;;;;;;;;;;5063140;28;20038;-75
2022/09/10 00:26:37;;;;;;;15.52;6.15;;;;;;;;;;5071317;28;20050;-74
2022/09/10 00:29:05;;;;;;;14.55;6.28;;;;;;;;;;5071188;28;20061;-74
2022/09/10 00:31:32;;;;;;;16.42;6.32;;;;;;;;;;5070692;28;20033;-75
2022/09/10 00:34:00;;;;;;;14.80;5.82;;;;;;;;;;5075999;28;20054;-74
2022/09/10 00:36:29;;;;;;;16.70;5.95;;;;;;;;;;5072119;28;20050;-74
2022/09/10 00:38:58;;;;;;;20.70;6.07;;;;;;;;;;5075019;28;20048;-75
2022/09/10 00:41:26;;;;;;;17.42;6.25;;;;;;;;;;5074528;28;20056;-74
2022/09/10 00:43:59;;;;;;;9.98;5.82;;;;;;;;;;5079854;28;20034;-76
2022/09/10 00:46:28;;;;;;;18.23;6.45;;;;;;;;;;5072369;28;20069;-75
2022/09/10 00:48:57;;;;;;;11.57;6.13;;;;;;;;;;5079518;28;20119;-74
2022/09/10 00:51:26;;;;;;;20.83;6.50;;;;;;;;;;5070989;28;20057;-74
2022/09/10 00:53:53;;;;;;;22.23;6.60;;;;;;;;;;5074018;28;20938;-74
2022/09/10 00:56:21;;;;;;;15.02;6.45;;;;;;;;;;5080241;28;20041;-76
2022/09/10 00:58:48;;;;;;;12.93;6.53;;;;;;;;;;5069512;28;20127;-76
2022/09/10 01:01:15;;;;;;;20.00;7.35;;;;;;;;;;5071080;28;20048;-73
2022/09/10 01:03:43;;;;;;;22.88;7.45;;;;;;;;;;5083065;28;20049;-75
2022/09/10 01:06:10;;;;;;;20.70;7.93;;;;;;;;;;5075161;28;20909;-74
2022/09/10 01:08:37;;;;;;;14.63;7.80;;;;;;;;;;5075328;28;20068;-75
2022/09/10 01:11:05;;;;;;;16.23;8.10;;;;;;;;;;5063611;28;20057;-76
2022/09/10 01:13:51;;;;;;;19.10;9.10;;;;;;;;;;5073929;28;20083;-76
2022/09/10 01:16:30;;;;;;;21.00;8.48;;;;;;;;;;5078783;28;20041;-75
2022/09/10 01:18:58;;;;;;;21.23;9.38;;;;;;;;;;5069907;28;20056;-76
2022/09/10 01:21:32;;;;;;;25.27;9.18;;;;;;;;;;5069226;28;20143;-75
2022/09/10 01:24:17;;;;;;;17.90;9.18;;;;;;;;;;5058933;28;20037;-76
2022/09/10 01:26:44;;;;;;;43.28;10.27;;;;;;;;;;5064919;28;20057;-76
2022/09/10 01:29:14;;;;;;;18.85;9.73;;;;;;;;;;5080707;28;20041;-74
2022/09/10 01:31:48;;;;;;;24.77;10.02;;;;;;;;;;5072658;28;20042;-75
2022/09/10 01:34:23;;;;;;;23.90;10.40;;;;;;;;;;5070780;28;20049;-75
2022/09/10 01:36:53;;;;;;;27.42;11.52;;;;;;;;;;5065296;28;20638;-76
2022/09/10 01:39:21;;;;;;;31.02;10.85;;;;;;;;;;5068643;28;20053;-75
2022/09/10 01:41:49;;;;;;;26.73;11.70;;;;;;;;;;5061781;28;20037;-75
2022/09/10 01:44:35;;;;;;;27.92;12.13;;;;;;;;;;5073324;28;20051;-76
2022/09/10 01:47:11;;;;;;;23.25;11.55;;;;;;;;;;5069416;28;20049;-75
2022/09/10 01:49:45;;;;;;;23.60;11.63;;;;;;;;;;5068365;28;20061;-76
2022/09/10 01:52:15;;;;;;;22.38;12.60;;;;;;;;;;5056244;28;20103;-75
2022/09/10 01:55:03;;;;;;;21.23;12.40;;;;;;;;;;5066562;28;20073;-75
2022/09/10 01:57:36;;;;;;;30.23;12.48;;;;;;;;;;5061740;28;20053;-74
2022/09/10 02:00:08;;;;;;;25.80;12.80;;;;;;;;;;5068907;28;20049;-75
2022/09/10 02:02:38;;;;;;;26.20;12.73;;;;;;;;;;5071045;28;20924;-76
2022/09/10 02:05:05;;;;;;;33.95;13.68;;;;;;;;;;5073455;28;20771;-76
2022/09/10 02:07:34;;;;;;;23.92;13.52;;;;;;;;;;5078441;28;20078;-76
2022/09/10 02:10:04;;;;;;;26.70;13.48;;;;;;;;;;5052123;28;21990;-76
2022/09/10 02:12:32;;;;;;;34.30;14.60;;;;;;;;;;5077412;28;20053;-77
2022/09/10 02:14:59;;;;;;;36.00;15.32;;;;;;;;;;5070349;28;20045;-76
2022/09/10 02:17:29;;;;;;;23.38;14.90;;;;;;;;;;5055867;28;20099;-75
2022/09/10 02:19:57;;;;;;;42.58;16.20;;;;;;;;;;5071419;28;20057;-76
2022/09/10 02:22:25;;;;;;;39.58;16.23;;;;;;;;;;5066736;28;20064;-76
2022/09/10 02:24:52;;;;;;;37.17;15.38;;;;;;;;;;5072596;28;20956;-76
2022/09/10 02:27:19;;;;;;;27.83;15.32;;;;;;;;;;5075213;28;20049;-76
2022/09/10 02:29:48;;;;;;;38.22;15.95;;;;;;;;;;5066057;28;20111;-76
2022/09/10 02:32:16;;;;;;;32.17;16.27;;;;;;;;;;5068319;28;20061;-75
2022/09/10 02:34:43;;;;;;;26.02;16.02;;;;;;;;;;5044821;28;20096;-75
2022/09/10 02:37:10;;;;;;;26.00;16.02;;;;;;;;;;5065067;28;20774;-75
2022/09/10 02:39:37;;;;;;;29.95;15.90;;;;;;;;;;5062665;28;20041;-76
2022/09/10 02:42:04;;;;;;;34.28;17.00;;;;;;;;;;5074618;28;20037;-75
2022/09/10 02:44:31;;;;;;;30.20;16.30;;;;;;;;;;5069344;28;21087;-75
2022/09/10 02:46:58;;;;;;;32.92;16.27;;;;;;;;;;5068697;28;20049;-75
2022/09/10 02:49:27;;;;;;;31.88;16.90;;;;;;;;;;5071694;28;20068;-75
2022/09/10 02:51:54;;;;;;;31.30;17.40;;;;;;;;;;5069120;28;20130;-75
2022/09/10 02:54:21;;;;;;;34.38;17.15;;;;;;;;;;5074152;28;20095;-76
2022/09/10 02:56:48;;;;;;;40.17;18.80;;;;;;;;;;5071571;28;20067;-75
2022/09/10 02:59:17;;;;;;;44.70;19.58;;;;;;;;;;5063096;28;20049;-75
2022/09/10 03:01:44;;;;;;;37.00;19.30;;;;;;;;;;5077676;28;20040;-74
2022/09/10 03:04:11;;;;;;;34.28;18.15;;;;;;;;;;5051104;28;20057;-75
2022/09/10 03:06:39;;;;;;;36.28;18.60;;;;;;;;;;5053839;28;20045;-75
2022/09/10 03:09:07;;;;;;;35.40;18.08;;;;;;;;;;5061017;28;20053;-75
2022/09/10 03:11:39;;;;;;;42.03;19.67;;;;;;;;;;5076115;28;20059;-75
2022/09/10 03:14:08;;;;;;;36.50;17.80;;;;;;;;;;5074239;28;20029;-75
2022/09/10 03:16:36;;;;;;;41.17;19.27;;;;;;;;;;5065300;28;20860;-75
2022/09/10 03:19:03;;;;;;;29.83;17.90;;;;;;;;;;5077271;28;20045;-75
2022/09/10 03:21:30;;;;;;;35.55;18.52;;;;;;;;;;5077517;28;20091;-75
2022/09/10 03:23:57;;;;;;;32.00;18.88;;;;;;;;;;5078135;28;20049;-75
2022/09/10 03:26:25;;;;;;;37.80;19.48;;;;;;;;;;5073151;28;20955;-75
2022/09/10 03:28:52;;;;;;;34.83;17.65;;;;;;;;;;5069573;28;20046;-75
2022/09/10 03:31:20;;;;;;;32.10;18.17;;;;;;;;;;5072078;28;20106;-74
2022/09/10 03:33:48;;;;;;;38.80;18.35;;;;;;;;;;5072630;28;20080;-74
2022/09/10 03:36:15;;;;;;;30.58;18.15;;;;;;;;;;5069773;28;20049;-75
2022/09/10 03:38:42;;;;;;;39.03;19.50;;;;;;;;;;5073973;28;20049;-74
2022/09/10 03:41:09;;;;;;;40.50;19.60;;;;;;;;;;5072268;28;20065;-74
2022/09/10 03:43:36;;;;;;;33.97;18.75;;;;;;;;;;5076316;28;20033;-75
2022/09/10 03:46:04;;;;;;;35.38;18.55;;;;;;;;;;5079097;28;20045;-75
2022/09/10 03:48:31;;;;;;;31.90;19.05;;;;;;;;;;5067931;28;20068;-74
2022/09/10 03:50:58;;;;;;;38.65;19.38;;;;;;;;;;5055669;28;20046;-75
2022/09/10 03:53:26;;;;;;;36.95;18.17;;;;;;;;;;5079721;28;20049;-76
2022/09/10 03:55:54;;;;;;;40.53;19.23;;;;;;;;;;5065895;28;20057;-74
2022/09/10 03:58:21;;;;;;;31.75;17.88;;;;;;;;;;5068021;28;20067;-75
2022/09/10 04:00:48;;;;;;;32.42;19.27;;;;;;;;;;5075115;28;20048;-75
2022/09/10 04:03:16;;;;;;;34.25;18.70;;;;;;;;;;5066306;28;20037;-74
2022/09/10 04:05:43;;;;;;;30.60;18.50;;;;;;;;;;5070410;28;20045;-74
2022/09/10 04:08:11;;;;;;;38.50;19.13;;;;;;;;;;5076543;28;20045;-75
2022/09/10 04:10:39;;;;;;;40.28;18.50;;;;;;;;;;5070298;28;20045;-75
2022/09/10 04:13:06;;;;;;;38.42;18.17;;;;;;;;;;5073195;28;20088;-76
2022/09/10 04:15:33;;;;;;;34.53;17.90;;;;;;;;;;5075509;28;20151;-75
2022/09/10 04:18:00;;;;;;;37.03;18.92;;;;;;;;;;5068315;28;20045;-76
2022/09/10 04:20:27;;;;;;;31.58;18.10;;;;;;;;;;5071727;28;20068;-77
2022/09/10 04:22:55;;;;;;;41.08;19.55;;;;;;;;;;5066726;28;20115;-78
2022/09/10 04:25:22;;;;;;;40.20;20.00;;;;;;;;;;5069300;28;20046;-78
2022/09/10 04:27:50;;;;;;;37.45;18.52;;;;;;;;;;5072599;28;20041;-77
2022/09/10 04:30:18;;;;;;;42.60;20.65;;;;;;;;;;5071116;28;20053;-76
2022/09/10 04:32:45;;;;;;;62.22;21.27;;;;;;;;;;5079273;28;20053;-77
2022/09/10 04:35:15;;;;;;;46.63;19.77;;;;;;;;;;5080708;28;20104;-77
2022/09/10 04:37:43;;;;;;;45.40;19.80;;;;;;;;;;5081019;28;20076;-76
2022/09/10 04:40:10;;;;;;;41.00;19.83;;;;;;;;;;5057508;28;22942;-78
2022/09/10 04:42:38;;;;;;;48.90;19.90;;;;;;;;;;5069335;28;20042;-78
2022/09/10 04:45:06;;;;;;;42.45;19.95;;;;;;;;;;5056979;28;20041;-78
2022/09/10 04:47:33;;;;;;;44.30;19.27;;;;;;;;;;5044731;28;20050;-76
2022/09/10 04:50:00;;;;;;;44.20;20.55;;;;;;;;;;5055874;28;20041;-77
2022/09/10 04:52:28;;;;;;;42.17;19.92;;;;;;;;;;5064751;28;20034;-76
2022/09/10 04:54:55;;;;;;;42.08;19.50;;;;;;;;;;5042393;28;20046;-76
2022/09/10 04:57:29;;;;;;;41.80;18.95;;;;;;;;;;5057200;28;20116;-77
2022/09/10 04:59:56;;;;;;;35.97;18.77;;;;;;;;;;5042096;28;20100;-77
2022/09/10 05:02:24;;;;;;;45.60;19.02;;;;;;;;;;5052351;28;20037;-77
2022/09/10 05:04:51;;;;;;;39.20;19.42;;;;;;;;;;5043848;28;20068;-77
2022/09/10 05:07:18;;;;;;;43.38;19.90;;;;;;;;;;5047560;28;20052;-77
2022/09/10 05:09:45;;;;;;;40.47;18.40;;;;;;;;;;5048546;28;20503;-76
2022/09/10 05:12:12;;;;;;;41.97;19.52;;;;;;;;;;5044221;28;20034;-77
2022/09/10 05:14:40;;;;;;;51.05;20.05;;;;;;;;;;5050910;28;20779;-76
2022/09/10 05:17:11;;;;;;;44.05;20.17;;;;;;;;;;5043122;28;20057;-76
2022/09/10 05:19:38;;;;;;;49.35;20.17;;;;;;;;;;5046873;28;20860;-76
2022/09/10 05:22:05;;;;;;;40.67;19.77;;;;;;;;;;5046423;28;20112;-77
2022/09/10 05:24:33;;;;;;;46.75;20.27;;;;;;;;;;5044809;28;20046;-78
2022/09/10 05:27:03;;;;;;;43.70;19.20;;;;;;;;;;5056485;28;20056;-76
2022/09/10 05:29:30;;;;;;;47.30;19.92;;;;;;;;;;5047181;28;20050;-75
2022/09/10 05:32:00;;;;;;;36.38;19.67;;;;;;;;;;5048153;28;20057;-77
2022/09/10 05:34:27;;;;;;;33.08;18.25;;;;;;;;;;5040402;28;20482;-77
2022/09/10 05:36:55;;;;;;;36.30;19.15;;;;;;;;;;5049615;28;20064;-77
2022/09/10 05:39:22;;;;;;;44.97;19.90;;;;;;;;;;5048136;28;20470;-77
2022/09/10 05:41:49;;;;;;;36.55;18.50;;;;;;;;;;5064471;28;20061;-75
2022/09/10 05:44:16;;;;;;;41.00;18.77;;;;;;;;;;5069467;28;20045;-76
2022/09/10 05:46:44;;;;;;;38.88;19.80;;;;;;;;;;5070058;28;20842;-78
2022/09/10 05:49:11;;;;;;;39.88;19.23;;;;;;;;;;5058535;28;20046;-76
2022/09/10 05:51:39;;;;;;;34.28;18.20;;;;;;;;;;5070668;28;20033;-77
2022/09/10 05:54:07;;;;;;;32.65;17.98;;;;;;;;;;5065663;28;20054;-76
2022/09/10 05:56:34;;;;;;;38.08;18.55;;;;;;;;;;5067956;28;20037;-76
2022/09/10 05:59:02;;;;;;;36.70;18.75;;;;;;;;;;5079073;28;21076;-77
2022/09/10 06:01:30;;;;;;;37.35;17.63;;;;;;;;;;5076406;28;20045;-77
2022/09/10 06:03:58;;;;;;;38.05;18.98;;;;;;;;;;5060174;28;20049;-77
2022/09/10 06:06:27;;;;;;;48.63;19.08;;;;;;;;;;5060335;28;20921;-77
2022/09/10 06:08:57;;;;;;;35.65;18.48;;;;;;;;;;5072128;28;20107;-77
2022/09/10 06:11:24;;;;;;;41.63;19.55;;;;;;;;;;5071056;28;20045;-77
2022/09/10 06:13:52;;;;;;;43.70;19.35;;;;;;;;;;5065658;28;20060;-76
2022/09/10 06:16:19;;;;;;;35.38;19.67;;;;;;;;;;5069415;28;20956;-76
2022/09/10 06:18:46;;;;;;;38.88;20.45;;;;;;;;;;5060977;28;20108;-77
2022/09/10 06:21:15;;;;;;;42.30;20.08;;;;;;;;;;5080621;28;20129;-76
2022/09/10 06:23:42;;;;;;;49.88;21.90;;;;;;;;;;5071438;28;20050;-76
2022/09/10 06:26:13;;;;;;;48.00;21.10;;;;;;;;;;5066866;28;20057;-76
2022/09/10 06:28:40;;;;;;;44.58;21.98;;;;;;;;;;5071457;28;20965;-78
2022/09/10 06:31:10;;;;;;;44.28;23.10;;;;;;;;;;5071750;28;20048;-77
2022/09/10 06:33:37;;;;;;;42.55;22.92;;;;;;;;;;5066383;28;20041;-75
2022/09/10 06:36:04;;;;;;;43.60;23.17;;;;;;;;;;5067800;28;20056;-76
2022/09/10 06:38:32;;;;;;;41.22;23.40;;;;;;;;;;5074174;28;20037;-77
2022/09/10 06:41:00;;;;;;;44.95;23.35;;;;;;;;;;5074233;28;20768;-76
2022/09/10 06:43:31;;;;;;;37.58;22.17;;;;;;;;;;5072934;28;20168;-76
2022/09/10 06:45:58;;;;;;;41.28;22.17;;;;;;;;;;5063038;28;20049;-77
2022/09/10 06:48:26;;;;;;;40.20;22.77;;;;;;;;;;5067947;28;20041;-78
2022/09/10 06:51:14;;;;;;;66.03;24.38;;;;;;;;;;5078058;28;20033;-78
2022/09/10 06:53:41;;;;;;;32.22;20.65;;;;;;;;;;5077566;28;20058;-77
2022/09/10 06:56:12;;;;;;;42.90;23.20;;;;;;;;;;5078028;28;20045;-78
2022/09/10 06:58:40;;;;;;;38.88;22.35;;;;;;;;;;5076484;28;20041;-76
2022/09/10 07:01:08;;;;;;;43.45;22.30;;;;;;;;;;5079560;28;20038;-78
2022/09/10 07:03:38;;;;;;;34.28;20.52;;;;;;;;;;5073142;28;20049;-77
2022/09/10 07:06:07;;;;;;;33.42;20.35;;;;;;;;;;5079869;28;20071;-77
2022/09/10 07:08:34;;;;;;;37.10;21.20;;;;;;;;;;5066502;28;20056;-77
2022/09/10 07:11:03;;;;;;;48.10;22.33;;;;;;;;;;5080789;28;20148;-76
2022/09/10 07:13:31;;;;;;;33.55;21.50;;;;;;;;;;5073724;28;20049;-78
2022/09/10 07:15:58;;;;;;;36.28;21.42;;;;;;;;;;5069937;28;20057;-79
2022/09/10 07:18:26;;;;;;;38.35;20.92;;;;;;;;;;5069191;28;20163;-77
2022/09/10 07:20:53;;;;;;;41.60;21.92;;;;;;;;;;5071810;28;20049;-77
2022/09/10 07:23:21;;;;;;;58.92;23.48;;;;;;;;;;5053068;28;20080;-76
2022/09/10 07:25:49;;;;;;;43.42;21.20;;;;;;;;;;5068035;28;20109;-77
2022/09/10 07:28:17;;;;;;;38.00;19.90;;;;;;;;;;5073459;28;20052;-77
2022/09/10 07:30:45;;;;;;;27.17;18.60;;;;;;;;;;5076729;28;20053;-76
2022/09/10 07:33:12;;;;;;;36.15;20.45;;;;;;;;;;5063612;28;20041;-77
2022/09/10 07:35:40;;;;;;;40.58;20.88;;;;;;;;;;5077115;28;20049;-78
2022/09/10 07:38:12;;;;;;;31.00;19.70;;;;;;;;;;5061660;28;20056;-77
2022/09/10 07:40:40;;;;;;;27.52;16.83;;;;;;;;;;5078342;28;20057;-77
2022/09/10 07:43:07;;;;;;;42.42;20.02;;;;;;;;;;5077011;28;20133;-77
2022/09/10 07:45:34;;;;;;;38.20;19.40;;;;;;;;;;5081949;28;20056;-77
2022/09/10 07:48:01;;;;;;;32.45;18.75;;;;;;;;;;5080908;28;20037;-77
2022/09/10 07:50:29;;;;;;;36.42;17.95;;;;;;;;;;5082412;28;21023;-76
2022/09/10 07:52:56;;;;;;;28.40;18.35;;;;;;;;;;5069325;28;20052;-77
2022/09/10 07:55:23;;;;;;;32.25;18.30;;;;;;;;;;5086413;28;20041;-77
2022/09/10 07:57:54;;;;;;;30.42;18.92;;;;;;;;;;5083805;28;20964;-76
2022/09/10 08:00:26;;;;;;;31.48;18.13;;;;;;;;;;5063201;28;20772;-77
2022/09/10 08:02:53;;;;;;;32.63;17.98;;;;;;;;;;5077095;28;20041;-77
2022/09/10 08:05:20;;;;;;;33.13;18.83;;;;;;;;;;5077687;28;20052;-76
2022/09/10 08:07:48;;;;;;;28.67;18.02;;;;;;;;;;5071421;28;20041;-76
2022/09/10 08:10:15;;;;;;;28.52;17.90;;;;;;;;;;5078021;28;20085;-75
2022/09/10 08:12:43;;;;;;;20.00;13.52;;;;;;;;;;5084106;28;20056;-76
2022/09/10 08:15:10;;;;;;;25.95;16.10;;;;;;;;;;5088408;28;21322;-76
2022/09/10 08:17:37;;;;;;;26.58;14.80;;;;;;;;;;5092610;28;20055;-75
2022/09/10 08:20:06;;;;;;;23.55;14.57;;;;;;;;;;5082322;28;20041;-76
2022/09/10 08:22:34;;;;;;;20.38;12.75;;;;;;;;;;5083105;28;20045;-76
2022/09/10 08:25:02;;;;;;;21.02;14.00;;;;;;;;;;5077220;28;20046;-76
2022/09/10 08:27:29;;;;;;;22.23;14.60;;;;;;;;;;5081537;28;20044;-76
2022/09/10 08:29:56;;;;;;;15.77;11.07;;;;;;;;;;5075340;28;20514;-76
2022/09/10 08:32:23;;;;;;;20.98;14.40;;;;;;;;;;5076005;28;20041;-78
2022/09/10 08:34:51;;;;;;;19.55;13.30;;;;;;;;;;5067239;28;20045;-78
2022/09/10 08:37:18;;;;;;;19.17;12.23;;;;;;;;;;5071195;28;20037;-78
2022/09/10 08:39:45;;;;;;;21.83;13.10;;;;;;;;;;5086614;28;20025;-77
2022/09/10 08:42:17;;;;;;;25.65;12.52;;;;;;;;;;5091353;28;20076;-77
2022/09/10 08:44:52;;;;;;;20.80;12.95;;;;;;;;;;5092171;28;20061;-79
2022/09/10 08:47:24;;;;;;;24.65;14.60;;;;;;;;;;5084412;28;20072;-78
2022/09/10 08:50:12;;;;;;;20.10;12.47;;;;;;;;;;5084537;28;20059;-76
2022/09/10 08:52:40;;;;;;;18.23;11.25;;;;;;;;;;5073710;28;20059;-78
2022/09/10 08:55:16;;;;;;;21.60;12.60;;;;;;;;;;5085576;28;20037;-78
2022/09/10 08:57:45;;;;;;;20.10;11.45;;;;;;;;;;5071333;28;20842;-76
2022/09/10 09:00:23;;;;;;;15.45;10.95;;;;;;;;;;5084232;28;20029;-77
2022/09/10 09:03:10;;;;;;;15.40;8.27;;;;;;;;;;5085457;28;20080;-78
2022/09/10 09:05:45;;;;;;;11.27;8.10;;;;;;;;;;5081331;28;20050;-77
2022/09/10 09:08:16;;;;;;;15.98;8.27;;;;;;;;;;5086951;28;20052;-76
2022/09/10 09:10:53;;;;;;;10.68;7.30;;;;;;;;;;5086406;28;20030;-77
2022/09/10 09:13:34;;;;;;;17.48;9.25;;;;;;;;;;5086667;28;20045;-76
2022/09/10 09:16:11;;;;;;;15.32;10.00;;;;;;;;;;5074773;28;20056;-77
2022/09/10 09:18:57;;;;;;;13.85;10.18;;;;;;;;;;5081744;28;20057;-77
2022/09/10 09:21:42;;;;;;;21.70;9.85;;;;;;;;;;5074217;28;20025;-78
2022/09/10 09:24:30;;;;;;;20.08;12.70;;;;;;;;;;5083623;28;20866;-78
2022/09/10 09:27:01;;;;;;;20.95;13.73;;;;;;;;;;5067707;28;20059;-77
2022/09/10 09:29:32;;;;;;;19.33;12.32;;;;;;;;;;5076162;28;20095;-80
2022/09/10 09:32:01;;;;;;;23.73;16.25;;;;;;;;;;5075228;28;20029;-80
2022/09/10 09:34:36;;;;;;;19.60;13.43;;;;;;;;;;5078424;28;20057;-79
2022/09/10 09:37:04;;;;;;;20.65;13.93;;;;;;;;;;5085455;28;20040;-77
2022/09/10 09:39:36;;;;;;;18.90;13.55;;;;;;;;;;5090345;27;20046;-78
2022/09/10 09:42:24;;;;;;;24.30;16.48;;;;;;;;;;5092644;27;20037;-78
2022/09/10 09:45:10;;;;;;;16.15;9.88;;;;;;;;;;5093617;27;20033;-78
2022/09/10 09:47:38;;;;;;;17.63;9.40;;;;;;;;;;5081878;28;20056;-78
2022/09/10 09:50:05;;;;;;;10.90;8.13;;;;;;;;;;5082645;28;20044;-76
2022/09/10 09:52:34;;;;;;;17.25;10.30;;;;;;;;;;5089008;28;20025;-77
2022/09/10 09:55:03;;;;;;;17.10;12.55;;;;;;;;;;5075714;28;20042;-77
2022/09/10 09:57:41;;;;;;;23.73;14.50;;;;;;;;;;5086421;28;20053;-77
2022/09/10 10:00:28;;;;;;;20.67;15.35;;;;;;;;;;5088483;28;20076;-76
2022/09/10 10:02:55;;;;;;;18.38;13.98;;;;;;;;;;5092742;27;20029;-78
2022/09/10 10:05:25;;;;;;;21.40;15.63;;;;;;;;;;5086270;28;20045;-78
2022/09/10 10:07:52;;;;;;;23.13;15.40;;;;;;;;;;5088883;27;20044;-78
2022/09/10 10:10:23;;;;;;;18.88;13.32;;;;;;;;;;5092090;27;20045;-79
2022/09/10 10:12:51;;;;;;;22.25;14.38;;;;;;;;;;5091627;28;20059;-78
2022/09/10 10:15:39;;;;;;;16.67;12.63;;;;;;;;;;5078229;27;20081;-76
2022/09/10 10:18:22;;;;;;;20.10;12.07;;;;;;;;;;5071373;28;20045;-76
2022/09/10 10:21:11;;;;;;;18.55;13.13;;;;;;;;;;5082583;28;20060;-76
2022/09/10 10:23:38;;;;;;;17.98;12.18;;;;;;;;;;5067175;28;20056;-76
2022/09/10 10:26:24;;;;;;;18.90;12.40;;;;;;;;;;5086172;28;20048;-76
2022/09/10 10:28:55;;;;;;;17.45;12.48;;;;;;;;;;5080706;28;20053;-76
2022/09/10 10:31:22;;;;;;;18.05;12.20;;;;;;;;;;5077269;28;20040;-76
2022/09/10 10:33:56;;;;;;;16.58;12.88;;;;;;;;;;5082533;28;20083;-76
2022/09/10 10:36:44;;;;;;;14.05;10.80;;;;;;;;;;5084109;28;20922;-76
2022/09/10 10:39:23;;;;;;;15.20;11.02;;;;;;;;;;5079629;28;20040;-76
2022/09/10 10:41:57;;;;;;;15.27;10.30;;;;;;;;;;5067774;28;20057;-77
2022/09/10 10:44:36;;;;;;;13.32;9.27;;;;;;;;;;5079195;28;20033;-75
2022/09/10 10:47:13;;;;;;;17.20;9.15;;;;;;;;;;5086045;28;20060;-76
2022/09/10 10:49:52;;;;;;;11.50;7.97;;;;;;;;;;5078719;28;20045;-75
2022/09/10 10:52:38;;;;;;;11.90;8.95;;;;;;;;;;5069006;28;20056;-75
2022/09/10 10:55:22;;;;;;;16.05;8.18;;;;;;;;;;5072665;28;20049;-75
2022/09/10 10:58:07;;;;;;;19.23;10.38;;;;;;;;;;5062772;28;20046;-75
2022/09/10 11:00:42;;;;;;;18.70;11.18;;;;;;;;;;5064814;28;20058;-76
2022/09/10 11:03:14;;;;;;;16.63;12.23;;;;;;;;;;5058026;28;20044;-74
2022/09/10 11:05:46;;;;;;;18.25;9.98;;;;;;;;;;5056351;28;20049;-75
2022/09/10 11:08:18;;;;;;;16.98;11.35;;;;;;;;;;5068169;28;20116;-75
2022/09/10 11:10:55;;;;;;;21.02;12.20;;;;;;;;;;5057527;28;20060;-75
2022/09/10 11:13:22;;;;;;;19.35;13.68;;;;;;;;;;5064086;28;20045;-74
2022/09/10 11:16:08;;;;;;;16.88;12.35;;;;;;;;;;5062770;28;20049;-75
2022/09/10 11:18:45;;;;;;;18.23;13.30;;;;;;;;;;5062276;28;20050;-76
2022/09/10 11:21:34;;;;;;;16.35;11.95;;;;;;;;;;5067790;28;20063;-75
2022/09/10 11:24:04;;;;;;;17.58;12.70;;;;;;;;;;5063877;28;20063;-75
2022/09/10 11:26:31;;;;;;;25.70;13.18;;;;;;;;;;5062791;28;20071;-75
2022/09/10 11:29:15;;;;;;;21.70;13.00;;;;;;;;;;5065763;28;20049;-74
2022/09/10 11:31:45;;;;;;;19.58;11.25;;;;;;;;;;5063496;28;20054;-75
2022/09/10 11:34:46;;;;;;;11.98;9.02;;;;;;;;;;5062820;28;20049;-75
2022/09/10 11:37:18;;;;;;;12.93;9.48;;;;;;;;;;5005608;28;20050;-75
2022/09/10 11:39:48;;;;;;;13.52;4.40;;;;;;;;;;5007023;28;20051;-75
2022/09/10 11:42:23;;;;;;;4.35;2.85;;;;;;;;;;5014165;28;20148;-75
2022/09/10 11:44:59;;;;;;;3.80;2.80;;;;;;;;;;5009533;28;20091;-75
2022/09/10 11:47:38;;;;;;;3.40;2.45;;;;;;;;;;5009423;28;20050;-74
2022/09/10 11:50:17;;;;;;;7.00;2.97;;;;;;;;;;5013762;28;20057;-75
2022/09/10 11:52:45;;;;;;;5.63;3.03;;;;;;;;;;5012859;28;20046;-75
2022/09/10 11:55:16;;;;;;;6.60;2.90;;;;;;;;;;5013427;28;20062;-74
2022/09/10 11:58:02;;;;;;;5.18;2.95;;;;;;;;;;5016047;28;20841;-74
2022/09/10 12:00:31;;;;;;;6.18;3.58;;;;;;;;;;5014105;28;20106;-75
2022/09/10 12:03:14;;;;;;;6.78;3.72;;;;;;;;;;5026006;28;20151;-74
2022/09/10 12:05:49;;;;;;;5.50;3.47;;;;;;;;;;5015082;28;20074;-74
2022/09/10 12:08:17;;;;;;;7.72;2.55;;;;;;;;;;5015585;28;20141;-75
2022/09/10 12:10:44;;;;;;;6.82;2.47;;;;;;;;;;5022606;28;20100;-76
2022/09/10 12:13:14;;;;;;;4.25;2.60;;;;;;;;;;5050505;28;20068;-74
2022/09/10 12:15:48;;;;;;;4.85;2.45;;;;;;;;;;5077830;28;20049;-74
2022/09/10 12:18:17;;;;;;;4.05;2.53;;;;;;;;;;5071681;28;20858;-76
2022/09/10 12:20:55;;;;;;;5.18;2.70;;;;;;;;;;5069196;28;20057;-75
2022/09/10 12:23:27;;;;;;;5.75;2.90;;;;;;;;;;5067917;28;20839;-74
2022/09/10 12:26:03;;;;;;;7.18;2.92;;;;;;;;;;5077621;28;20049;-74
2022/09/10 12:28:53;;;;;;;3.50;2.38;;;;;;;;;;5078098;28;20034;-76
2022/09/10 12:31:21;;;;;;;5.07;2.67;;;;;;;;;;5067385;28;20053;-74
2022/09/10 12:33:49;;;;;;;5.53;2.65;;;;;;;;;;5072394;28;20037;-75
2022/09/10 12:36:26;;;;;;;5.20;2.58;;;;;;;;;;5080908;28;20064;-75
2022/09/10 12:39:20;;;;;;;4.20;2.30;;;;;;;;;;5070213;28;20076;-76
2022/09/10 12:41:48;;;;;;;4.10;2.10;;;;;;;;;;5065980;28;20041;-75
2022/09/10 12:44:27;;;;;;;4.05;2.13;;;;;;;;;;5081524;28;20147;-74
2022/09/10 12:47:13;;;;;;;4.15;2.53;;;;;;;;;;5082241;28;20098;-75
2022/09/10 12:49:48;;;;;;;4.35;2.67;;;;;;;;;;5085337;28;20059;-74
2022/09/10 12:52:19;;;;;;;5.60;3.00;;;;;;;;;;5078788;28;20049;-75
2022/09/10 12:55:19;;;;;;;5.78;3.35;;;;;;;;;;5076326;28;20057;-74
2022/09/10 12:58:05;;;;;;;3.88;2.85;;;;;;;;;;5006827;28;20050;-74
2022/09/10 13:00:50;;;;;;;4.57;2.78;;;;;;;;;;5006734;28;20816;-74
2022/09/10 13:03:18;;;;;;;4.00;2.42;;;;;;;;;;5009245;28;20055;-75
2022/09/10 13:05:52;;;;;;;3.30;2.10;;;;;;;;;;5008785;28;20043;-75
2022/09/10 13:08:24;;;;;;;4.05;2.05;;;;;;;;;;5007486;28;20071;-76
2022/09/10 13:10:57;;;;;;;2.90;1.98;;;;;;;;;;5010924;28;20023;-76
2022/09/10 13:13:33;;;;;;;3.53;2.00;;;;;;;;;;5013383;28;20035;-74
2022/09/10 13:16:01;;;;;;;2.92;1.60;;;;;;;;;;5012112;28;20050;-76
2022/09/10 13:18:32;;;;;;;3.60;2.00;;;;;;;;;;5016510;28;20066;-76
2022/09/10 13:21:19;;;;;;;3.90;2.10;;;;;;;;;;5009985;28;21037;-75
2022/09/10 13:23:47;;;;;;;6.20;2.80;;;;;;;;;;5011659;28;20047;-75
2022/09/10 13:26:30;;;;;;;3.83;2.10;;;;;;;;;;5014069;28;20022;-76
2022/09/10 13:28:59;;;;;;;4.30;2.80;;;;;;;;;;5018016;28;20099;-76
2022/09/10 13:31:39;;;;;;;6.78;3.17;;;;;;;;;;5016772;28;20603;-76
2022/09/10 13:34:19;;;;;;;4.55;3.00;;;;;;;;;;5077838;27;20094;-76
2022/09/10 13:36:55;;;;;;;4.70;2.67;;;;;;;;;;5071320;28;20048;-76
2022/09/10 13:39:33;;;;;;;3.90;2.40;;;;;;;;;;5091893;27;20101;-76
2022/09/10 13:42:17;;;;;;;4.40;2.70;;;;;;;;;;5088152;27;20050;-76
2022/09/10 13:45:03;;;;;;;4.95;2.70;;;;;;;;;;5093172;28;20105;-76
2022/09/10 13:47:48;;;;;;;8.68;3.63;;;;;;;;;;5087431;28;20053;-76
2022/09/10 13:50:21;;;;;;;5.47;3.10;;;;;;;;;;5084545;27;20061;-76
2022/09/10 13:52:48;;;;;;;;;;;;;;;;;;5090758;27;20040;-74
2022/09/10 13:55:18;;;;;;;6.57;3.50;;;;;;;;;;5086242;27;44805;-76
2022/09/10 13:57:47;;;;;;;5.47;3.00;;;;;;;;;;5095077;27;20071;-75
2022/09/10 14:00:43;;;;;;;6.13;2.90;;;;;;;;;;5091945;28;20026;-76
2022/09/10 14:03:15;;;;;;;5.97;3.00;;;;;;;;;;5077733;28;20021;-77
2022/09/10 14:05:48;;;;;;;5.22;3.05;;;;;;;;;;5088565;27;20037;-75
2022/09/10 14:08:19;;;;;;;6.70;3.08;;;;;;;;;;5089366;28;20034;-77
2022/09/10 14:10:49;;;;;;;7.47;3.15;;;;;;;;;;5087199;27;20087;-76
2022/09/10 14:13:19;;;;;;;6.43;3.40;;;;;;;;;;5086571;27;20054;-76
2022/09/10 14:15:46;;;;;;;7.38;3.60;;;;;;;;;;5093917;28;20075;-76
2022/09/10 14:18:14;;;;;;;5.50;3.30;;;;;;;;;;5093876;27;20068;-76
2022/09/10 14:20:41;;;;;;;6.45;3.35;;;;;;;;;;5090346;28;20037;-77
2022/09/10 14:23:14;;;;;;;4.68;3.33;;;;;;;;;;5088684;27;20053;-76
2022/09/10 14:25:43;;;;;;;7.53;3.17;;;;;;;;;;5087382;27;20033;-76
2022/09/10 14:28:18;;;;;;;5.95;3.35;;;;;;;;;;5086394;27;20064;-76
2022/09/10 14:30:47;;;;;;;6.63;3.00;;;;;;;;;;5090194;28;20083;-76
2022/09/10 14:33:28;;;;;;;7.63;3.45;;;;;;;;;;5085167;27;20068;-76
2022/09/10 14:35:57;;;;;;;5.32;3.20;;;;;;;;;;5095526;28;20131;-76
2022/09/10 14:38:24;;;;;;;5.03;3.03;;;;;;;;;;5088632;27;20041;-75
2022/09/10 14:41:00;;;;;;;7.07;3.40;;;;;;;;;;5093232;27;20055;-76
2022/09/10 14:43:36;;;;;;;6.90;3.40;;;;;;;;;;5099786;27;20025;-76
2022/09/10 14:46:06;;;;;;;4.75;3.33;;;;;;;;;;5075664;28;20036;-76
2022/09/10 14:48:38;;;;;;;6.28;3.28;;;;;;;;;;5085053;27;20031;-77